sensor_id;sensor_type;location;lat;lon;timestamp;P1;durP1;ratioP1;P2;durP2;ratioP2
76727;SDS011;65652;53.132;18.026;2023-04-01T00:00:58;19.40;;;9.80;;
76727;SDS011;65652;53.132;18.026;2023-04-01T00:05:56;19.50;;;9.30;;
76727;SDS011;65652;53.132;18.026;2023-04-01T00:08:23;18.50;;;9.50;;
76727;SDS011;65652;53.132;18.026;2023-04-01T00:10:50;19.90;;;9.90;;
76727;SDS011;65652;53.132;18.026;2023-04-01T00:13:17;17.90;;;10.10;;
76727;SDS011;65652;53.132;18.026;2023-04-01T00:15:43;18.90;;;9.60;;
76727;SDS011;65652;53.132;18.026;2023-04-01T00:18:10;17.70;;;9.10;;
76727;SDS011;65652;53.132;18.026;2023-04-01T00:20:37;19.10;;;9.80;;
76727;SDS011;65652;53.132;18.026;2023-04-01T00:23:04;18.00;;;8.90;;
76727;SDS011;65652;53.132;18.026;2023-04-01T00:25:30;18.20;;;9.10;;
76727;SDS011;65652;53.132;18.026;2023-04-01T00:27:57;15.50;;;8.60;;
76727;SDS011;65652;53.132;18.026;2023-04-01T00:30:23;19.00;;;8.80;;
76727;SDS011;65652;53.132;18.026;2023-04-01T00:32:52;16.30;;;8.70;;
76727;SDS011;65652;53.132;18.026;2023-04-01T00:35:19;16.70;;;8.80;;
76727;SDS011;65652;53.132;18.026;2023-04-01T00:37:45;16.60;;;8.90;;
76727;SDS011;65652;53.132;18.026;2023-04-01T00:40:22;16.20;;;8.10;;
76727;SDS011;65652;53.132;18.026;2023-04-01T00:42:51;16.30;;;8.40;;
76727;SDS011;65652;53.132;18.026;2023-04-01T00:45:23;16.90;;;8.70;;
76727;SDS011;65652;53.132;18.026;2023-04-01T00:48:00;16.60;;;8.70;;
76727;SDS011;65652;53.132;18.026;2023-04-01T00:50:31;19.30;;;8.40;;
76727;SDS011;65652;53.132;18.026;2023-04-01T00:53:00;16.80;;;8.10;;
76727;SDS011;65652;53.132;18.026;2023-04-01T00:55:28;17.30;;;8.70;;
76727;SDS011;65652;53.132;18.026;2023-04-01T00:57:56;16.40;;;8.50;;
76727;SDS011;65652;53.132;18.026;2023-04-01T01:00:24;17.70;;;8.80;;
76727;SDS011;65652;53.132;18.026;2023-04-01T01:02:52;19.00;;;8.40;;
76727;SDS011;65652;53.132;18.026;2023-04-01T01:05:20;15.60;;;8.10;;
76727;SDS011;65652;53.132;18.026;2023-04-01T01:07:58;17.80;;;8.40;;
76727;SDS011;65652;53.132;18.026;2023-04-01T01:10:35;16.60;;;8.50;;
76727;SDS011;65652;53.132;18.026;2023-04-01T01:13:10;16.10;;;8.40;;
76727;SDS011;65652;53.132;18.026;2023-04-01T01:16:26;19.80;;;9.70;;
76727;SDS011;65652;53.132;18.026;2023-04-01T01:18:54;19.50;;;9.60;;
76727;SDS011;65652;53.132;18.026;2023-04-01T01:27:06;22.60;;;11.00;;
76727;SDS011;65652;53.132;18.026;2023-04-01T01:32:20;23.00;;;11.60;;
76727;SDS011;65652;53.132;18.026;2023-04-01T01:35:19;21.90;;;11.20;;
76727;SDS011;65652;53.132;18.026;2023-04-01T01:38:33;20.60;;;11.50;;
76727;SDS011;65652;53.132;18.026;2023-04-01T01:41:01;21.70;;;11.10;;
76727;SDS011;65652;53.132;18.026;2023-04-01T01:43:32;22.40;;;12.00;;
76727;SDS011;65652;53.132;18.026;2023-04-01T01:46:05;21.80;;;10.90;;
76727;SDS011;65652;53.132;18.026;2023-04-01T01:48:35;19.40;;;10.60;;
76727;SDS011;65652;53.132;18.026;2023-04-01T01:51:04;18.60;;;10.40;;
76727;SDS011;65652;53.132;18.026;2023-04-01T01:53:31;18.40;;;9.70;;
76727;SDS011;65652;53.132;18.026;2023-04-01T01:55:58;18.20;;;9.30;;
76727;SDS011;65652;53.132;18.026;2023-04-01T02:01:01;14.80;;;8.10;;
76727;SDS011;65652;53.132;18.026;2023-04-01T02:03:31;15.40;;;8.40;;
76727;SDS011;65652;53.132;18.026;2023-04-01T02:06:00;16.70;;;8.60;;
76727;SDS011;65652;53.132;18.026;2023-04-01T02:11:10;15.30;;;8.00;;
76727;SDS011;65652;53.132;18.026;2023-04-01T02:16:44;13.50;;;7.80;;
76727;SDS011;65652;53.132;18.026;2023-04-01T02:19:17;14.30;;;7.50;;
76727;SDS011;65652;53.132;18.026;2023-04-01T02:21:53;13.70;;;7.50;;
76727;SDS011;65652;53.132;18.026;2023-04-01T02:24:23;16.00;;;7.40;;
76727;SDS011;65652;53.132;18.026;2023-04-01T02:26:52;13.40;;;6.80;;
76727;SDS011;65652;53.132;18.026;2023-04-01T02:29:19;14.40;;;7.50;;
76727;SDS011;65652;53.132;18.026;2023-04-01T02:31:47;13.90;;;7.80;;
76727;SDS011;65652;53.132;18.026;2023-04-01T02:34:16;12.50;;;7.30;;
76727;SDS011;65652;53.132;18.026;2023-04-01T02:36:42;13.40;;;6.70;;
76727;SDS011;65652;53.132;18.026;2023-04-01T02:39:09;11.60;;;6.20;;
76727;SDS011;65652;53.132;18.026;2023-04-01T02:41:42;12.50;;;6.90;;
76727;SDS011;65652;53.132;18.026;2023-04-01T02:44:10;11.40;;;5.90;;
76727;SDS011;65652;53.132;18.026;2023-04-01T02:46:38;11.30;;;6.00;;
76727;SDS011;65652;53.132;18.026;2023-04-01T02:49:05;11.50;;;6.20;;
76727;SDS011;65652;53.132;18.026;2023-04-01T02:51:32;11.50;;;6.00;;
76727;SDS011;65652;53.132;18.026;2023-04-01T02:53:59;12.10;;;6.20;;
76727;SDS011;65652;53.132;18.026;2023-04-01T02:56:25;11.70;;;5.70;;
76727;SDS011;65652;53.132;18.026;2023-04-01T02:58:52;10.90;;;5.60;;
76727;SDS011;65652;53.132;18.026;2023-04-01T03:01:19;11.80;;;5.70;;
76727;SDS011;65652;53.132;18.026;2023-04-01T03:03:46;11.70;;;5.30;;
76727;SDS011;65652;53.132;18.026;2023-04-01T03:06:13;10.50;;;5.20;;
76727;SDS011;65652;53.132;18.026;2023-04-01T03:08:41;11.20;;;5.40;;
76727;SDS011;65652;53.132;18.026;2023-04-01T03:11:08;11.90;;;5.60;;
76727;SDS011;65652;53.132;18.026;2023-04-01T03:13:35;11.70;;;5.60;;
76727;SDS011;65652;53.132;18.026;2023-04-01T03:16:02;12.10;;;6.00;;
76727;SDS011;65652;53.132;18.026;2023-04-01T03:18:28;12.80;;;6.20;;
76727;SDS011;65652;53.132;18.026;2023-04-01T03:20:55;13.30;;;6.10;;
76727;SDS011;65652;53.132;18.026;2023-04-01T03:23:22;12.70;;;5.90;;
76727;SDS011;65652;53.132;18.026;2023-04-01T03:28:16;11.30;;;5.50;;
76727;SDS011;65652;53.132;18.026;2023-04-01T03:30:42;13.40;;;6.10;;
76727;SDS011;65652;53.132;18.026;2023-04-01T03:33:09;12.20;;;5.60;;
76727;SDS011;65652;53.132;18.026;2023-04-01T03:35:35;12.30;;;6.00;;
76727;SDS011;65652;53.132;18.026;2023-04-01T03:38:01;13.10;;;6.10;;
76727;SDS011;65652;53.132;18.026;2023-04-01T03:40:28;11.10;;;5.40;;
76727;SDS011;65652;53.132;18.026;2023-04-01T03:42:55;12.70;;;6.00;;
76727;SDS011;65652;53.132;18.026;2023-04-01T03:45:21;12.40;;;5.60;;
76727;SDS011;65652;53.132;18.026;2023-04-01T03:47:48;12.30;;;5.20;;
76727;SDS011;65652;53.132;18.026;2023-04-01T03:50:15;13.60;;;6.10;;
76727;SDS011;65652;53.132;18.026;2023-04-01T03:52:41;13.20;;;5.40;;
76727;SDS011;65652;53.132;18.026;2023-04-01T03:55:07;11.60;;;5.10;;
76727;SDS011;65652;53.132;18.026;2023-04-01T03:57:34;13.10;;;5.40;;
76727;SDS011;65652;53.132;18.026;2023-04-01T04:00:03;11.20;;;4.60;;
76727;SDS011;65652;53.132;18.026;2023-04-01T04:02:39;14.20;;;5.70;;
76727;SDS011;65652;53.132;18.026;2023-04-01T04:05:06;12.40;;;5.40;;
76727;SDS011;65652;53.132;18.026;2023-04-01T04:07:33;12.70;;;5.20;;
76727;SDS011;65652;53.132;18.026;2023-04-01T04:10:03;10.80;;;4.70;;
76727;SDS011;65652;53.132;18.026;2023-04-01T04:12:29;11.20;;;4.70;;
76727;SDS011;65652;53.132;18.026;2023-04-01T04:14:55;10.80;;;4.60;;
76727;SDS011;65652;53.132;18.026;2023-04-01T04:17:22;11.40;;;4.70;;
76727;SDS011;65652;53.132;18.026;2023-04-01T04:19:48;11.20;;;4.40;;
76727;SDS011;65652;53.132;18.026;2023-04-01T04:22:14;11.00;;;4.70;;
76727;SDS011;65652;53.132;18.026;2023-04-01T04:24:40;12.20;;;5.30;;
76727;SDS011;65652;53.132;18.026;2023-04-01T04:27:09;12.00;;;5.10;;
76727;SDS011;65652;53.132;18.026;2023-04-01T04:29:41;12.80;;;6.10;;
76727;SDS011;65652;53.132;18.026;2023-04-01T04:32:07;15.40;;;6.20;;
76727;SDS011;65652;53.132;18.026;2023-04-01T04:34:33;15.90;;;6.90;;
76727;SDS011;65652;53.132;18.026;2023-04-01T04:37:00;15.50;;;6.50;;
76727;SDS011;65652;53.132;18.026;2023-04-01T04:39:29;17.00;;;6.90;;
76727;SDS011;65652;53.132;18.026;2023-04-01T04:41:56;19.30;;;7.70;;
76727;SDS011;65652;53.132;18.026;2023-04-01T04:44:22;18.00;;;7.20;;
76727;SDS011;65652;53.132;18.026;2023-04-01T04:46:48;19.50;;;8.00;;
76727;SDS011;65652;53.132;18.026;2023-04-01T04:49:15;19.50;;;8.10;;
76727;SDS011;65652;53.132;18.026;2023-04-01T04:51:41;18.00;;;7.60;;
76727;SDS011;65652;53.132;18.026;2023-04-01T04:54:07;22.20;;;8.20;;
76727;SDS011;65652;53.132;18.026;2023-04-01T04:56:52;19.80;;;8.00;;
76727;SDS011;65652;53.132;18.026;2023-04-01T04:59:19;19.40;;;8.30;;
76727;SDS011;65652;53.132;18.026;2023-04-01T05:01:50;20.20;;;8.20;;
76727;SDS011;65652;53.132;18.026;2023-04-01T05:04:17;21.70;;;8.50;;
76727;SDS011;65652;53.132;18.026;2023-04-01T05:06:43;19.30;;;8.10;;
76727;SDS011;65652;53.132;18.026;2023-04-01T05:09:10;18.60;;;7.90;;
76727;SDS011;65652;53.132;18.026;2023-04-01T05:11:37;17.10;;;7.50;;
76727;SDS011;65652;53.132;18.026;2023-04-01T05:14:03;21.20;;;8.00;;
76727;SDS011;65652;53.132;18.026;2023-04-01T05:16:29;15.60;;;6.50;;
76727;SDS011;65652;53.132;18.026;2023-04-01T05:18:58;19.10;;;7.70;;
76727;SDS011;65652;53.132;18.026;2023-04-01T05:21:24;24.00;;;8.60;;
76727;SDS011;65652;53.132;18.026;2023-04-01T05:23:51;20.70;;;8.20;;
76727;SDS011;65652;53.132;18.026;2023-04-01T05:26:17;20.10;;;8.60;;
76727;SDS011;65652;53.132;18.026;2023-04-01T05:28:44;21.70;;;9.30;;
76727;SDS011;65652;53.132;18.026;2023-04-01T05:31:10;23.70;;;8.80;;
76727;SDS011;65652;53.132;18.026;2023-04-01T05:33:41;22.90;;;9.50;;
76727;SDS011;65652;53.132;18.026;2023-04-01T05:36:11;22.50;;;9.90;;
76727;SDS011;65652;53.132;18.026;2023-04-01T05:38:39;22.80;;;9.90;;
76727;SDS011;65652;53.132;18.026;2023-04-01T05:41:07;24.40;;;10.10;;
76727;SDS011;65652;53.132;18.026;2023-04-01T05:43:37;24.90;;;10.80;;
76727;SDS011;65652;53.132;18.026;2023-04-01T05:46:14;23.20;;;9.00;;
76727;SDS011;65652;53.132;18.026;2023-04-01T05:48:52;24.10;;;10.40;;
76727;SDS011;65652;53.132;18.026;2023-04-01T05:51:19;21.80;;;9.60;;
76727;SDS011;65652;53.132;18.026;2023-04-01T05:53:46;24.60;;;10.40;;
76727;SDS011;65652;53.132;18.026;2023-04-01T05:56:12;22.70;;;9.80;;
76727;SDS011;65652;53.132;18.026;2023-04-01T05:58:40;22.90;;;9.60;;
76727;SDS011;65652;53.132;18.026;2023-04-01T06:01:09;18.70;;;7.90;;
76727;SDS011;65652;53.132;18.026;2023-04-01T06:03:37;18.40;;;8.70;;
76727;SDS011;65652;53.132;18.026;2023-04-01T06:06:04;17.80;;;8.80;;
76727;SDS011;65652;53.132;18.026;2023-04-01T06:08:34;16.40;;;8.30;;
76727;SDS011;65652;53.132;18.026;2023-04-01T06:11:03;17.10;;;8.30;;
76727;SDS011;65652;53.132;18.026;2023-04-01T06:19:07;20.70;;;8.70;;
76727;SDS011;65652;53.132;18.026;2023-04-01T06:35:35;14.90;;;7.30;;
76727;SDS011;65652;53.132;18.026;2023-04-01T06:43:55;12.10;;;6.00;;
76727;SDS011;65652;53.132;18.026;2023-04-01T06:55:58;12.70;;;6.40;;
76727;SDS011;65652;53.132;18.026;2023-04-01T06:58:53;10.50;;;5.90;;
76727;SDS011;65652;53.132;18.026;2023-04-01T07:01:25;11.60;;;5.70;;
76727;SDS011;65652;53.132;18.026;2023-04-01T07:03:57;11.10;;;5.40;;
76727;SDS011;65652;53.132;18.026;2023-04-01T07:06:28;11.70;;;6.00;;
76727;SDS011;65652;53.132;18.026;2023-04-01T07:08:59;13.80;;;6.40;;
76727;SDS011;65652;53.132;18.026;2023-04-01T07:11:42;14.80;;;6.90;;
76727;SDS011;65652;53.132;18.026;2023-04-01T07:14:36;14.60;;;6.60;;
76727;SDS011;65652;53.132;18.026;2023-04-01T07:17:14;14.60;;;7.20;;
76727;SDS011;65652;53.132;18.026;2023-04-01T07:19:53;14.50;;;7.20;;
76727;SDS011;65652;53.132;18.026;2023-04-01T07:22:39;15.50;;;7.30;;
76727;SDS011;65652;53.132;18.026;2023-04-01T07:25:27;14.90;;;6.80;;
76727;SDS011;65652;53.132;18.026;2023-04-01T07:28:35;13.90;;;6.50;;
76727;SDS011;65652;53.132;18.026;2023-04-01T07:31:38;12.20;;;6.60;;
76727;SDS011;65652;53.132;18.026;2023-04-01T07:34:10;14.10;;;6.50;;
76727;SDS011;65652;53.132;18.026;2023-04-01T07:45:13;15.50;;;7.20;;
76727;SDS011;65652;53.132;18.026;2023-04-01T07:47:44;14.60;;;6.90;;
76727;SDS011;65652;53.132;18.026;2023-04-01T07:50:24;15.80;;;6.80;;
76727;SDS011;65652;53.132;18.026;2023-04-01T07:55:30;16.10;;;7.10;;
76727;SDS011;65652;53.132;18.026;2023-04-01T08:17:35;16.70;;;7.60;;
76727;SDS011;65652;53.132;18.026;2023-04-01T08:26:26;13.50;;;6.80;;
76727;SDS011;65652;53.132;18.026;2023-04-01T08:28:37;12.20;;;5.90;;
76727;SDS011;65652;53.132;18.026;2023-04-01T08:33:53;12.60;;;5.90;;
76727;SDS011;65652;53.132;18.026;2023-04-01T08:36:31;11.30;;;5.80;;
76727;SDS011;65652;53.132;18.026;2023-04-01T08:39:32;13.30;;;5.60;;
76727;SDS011;65652;53.132;18.026;2023-04-01T08:48:11;9.00;;;4.60;;
76727;SDS011;65652;53.132;18.026;2023-04-01T08:51:06;8.20;;;4.40;;
76727;SDS011;65652;53.132;18.026;2023-04-01T09:10:45;7.30;;;2.90;;
76727;SDS011;65652;53.132;18.026;2023-04-01T09:27:29;5.30;;;2.50;;
76727;SDS011;65652;53.132;18.026;2023-04-01T09:40:56;5.20;;;1.90;;
76727;SDS011;65652;53.132;18.026;2023-04-01T09:51:39;6.00;;;2.40;;
76727;SDS011;65652;53.132;18.026;2023-04-01T10:14:17;5.80;;;2.40;;
76727;SDS011;65652;53.132;18.026;2023-04-01T10:17:03;6.20;;;2.60;;
76727;SDS011;65652;53.132;18.026;2023-04-01T10:19:49;6.10;;;2.40;;
76727;SDS011;65652;53.132;18.026;2023-04-01T10:36:52;5.90;;;2.80;;
76727;SDS011;65652;53.132;18.026;2023-04-01T10:57:42;5.40;;;2.40;;
76727;SDS011;65652;53.132;18.026;2023-04-01T11:09:34;5.50;;;2.30;;
76727;SDS011;65652;53.132;18.026;2023-04-01T11:31:50;5.80;;;2.70;;
76727;SDS011;65652;53.132;18.026;2023-04-01T11:42:53;5.70;;;2.30;;
76727;SDS011;65652;53.132;18.026;2023-04-01T12:10:53;5.80;;;2.80;;
76727;SDS011;65652;53.132;18.026;2023-04-01T12:41:43;6.60;;;2.70;;
76727;SDS011;65652;53.132;18.026;2023-04-01T12:44:37;6.50;;;2.60;;
76727;SDS011;65652;53.132;18.026;2023-04-01T12:55:08;4.40;;;1.70;;
76727;SDS011;65652;53.132;18.026;2023-04-01T12:58:00;4.60;;;2.00;;
76727;SDS011;65652;53.132;18.026;2023-04-01T13:00:50;5.70;;;1.80;;
76727;SDS011;65652;53.132;18.026;2023-04-01T13:03:48;5.00;;;1.90;;
76727;SDS011;65652;53.132;18.026;2023-04-01T13:06:36;4.40;;;1.80;;
76727;SDS011;65652;53.132;18.026;2023-04-01T13:09:55;4.90;;;1.70;;
76727;SDS011;65652;53.132;18.026;2023-04-01T13:15:03;4.80;;;2.00;;
76727;SDS011;65652;53.132;18.026;2023-04-01T13:17:52;5.40;;;2.00;;
76727;SDS011;65652;53.132;18.026;2023-04-01T13:26:08;5.90;;;2.30;;
76727;SDS011;65652;53.132;18.026;2023-04-01T13:29:00;4.10;;;1.90;;
76727;SDS011;65652;53.132;18.026;2023-04-01T13:31:36;4.80;;;2.00;;
76727;SDS011;65652;53.132;18.026;2023-04-01T13:34:26;6.30;;;2.50;;
76727;SDS011;65652;53.132;18.026;2023-04-01T13:42:27;5.40;;;2.20;;
76727;SDS011;65652;53.132;18.026;2023-04-01T13:47:40;5.60;;;2.30;;
76727;SDS011;65652;53.132;18.026;2023-04-01T13:59:29;6.00;;;2.40;;
76727;SDS011;65652;53.132;18.026;2023-04-01T14:04:34;5.10;;;1.90;;
76727;SDS011;65652;53.132;18.026;2023-04-01T14:07:49;6.10;;;2.30;;
76727;SDS011;65652;53.132;18.026;2023-04-01T14:16:04;6.90;;;2.40;;
76727;SDS011;65652;53.132;18.026;2023-04-01T14:18:50;5.80;;;2.50;;
76727;SDS011;65652;53.132;18.026;2023-04-01T14:24:18;5.50;;;2.50;;
76727;SDS011;65652;53.132;18.026;2023-04-01T14:32:11;6.60;;;2.70;;
76727;SDS011;65652;53.132;18.026;2023-04-01T14:34:54;5.30;;;2.80;;
76727;SDS011;65652;53.132;18.026;2023-04-01T14:48:59;6.00;;;2.80;;
76727;SDS011;65652;53.132;18.026;2023-04-01T14:51:32;6.60;;;2.70;;
76727;SDS011;65652;53.132;18.026;2023-04-01T14:54:13;6.50;;;3.00;;
76727;SDS011;65652;53.132;18.026;2023-04-01T14:57:31;6.10;;;2.70;;
76727;SDS011;65652;53.132;18.026;2023-04-01T14:59:41;5.20;;;2.70;;
76727;SDS011;65652;53.132;18.026;2023-04-01T15:04:57;6.40;;;2.70;;
76727;SDS011;65652;53.132;18.026;2023-04-01T15:11:01;6.20;;;2.60;;
76727;SDS011;65652;53.132;18.026;2023-04-01T15:13:14;5.90;;;2.80;;
76727;SDS011;65652;53.132;18.026;2023-04-01T15:21:31;6.30;;;2.70;;
76727;SDS011;65652;53.132;18.026;2023-04-01T15:37:47;5.50;;;2.40;;
76727;SDS011;65652;53.132;18.026;2023-04-01T15:59:58;5.20;;;2.40;;
76727;SDS011;65652;53.132;18.026;2023-04-01T16:02:35;6.80;;;3.00;;
76727;SDS011;65652;53.132;18.026;2023-04-01T16:07:48;5.20;;;2.30;;
76727;SDS011;65652;53.132;18.026;2023-04-01T16:12:58;5.20;;;2.00;;
76727;SDS011;65652;53.132;18.026;2023-04-01T16:16:28;4.80;;;1.80;;
76727;SDS011;65652;53.132;18.026;2023-04-01T16:21:42;5.10;;;2.00;;
76727;SDS011;65652;53.132;18.026;2023-04-01T16:26:47;4.80;;;2.10;;
76727;SDS011;65652;53.132;18.026;2023-04-01T16:29:40;4.90;;;1.80;;
76727;SDS011;65652;53.132;18.026;2023-04-01T16:51:47;6.30;;;2.30;;
76727;SDS011;65652;53.132;18.026;2023-04-01T16:56:50;5.60;;;1.90;;
76727;SDS011;65652;53.132;18.026;2023-04-01T16:59:29;6.10;;;2.00;;
76727;SDS011;65652;53.132;18.026;2023-04-01T17:12:13;5.00;;;1.80;;
76727;SDS011;65652;53.132;18.026;2023-04-01T17:37:22;4.70;;;1.40;;
76727;SDS011;65652;53.132;18.026;2023-04-01T17:42:40;4.20;;;1.40;;
76727;SDS011;65652;53.132;18.026;2023-04-01T17:45:20;6.10;;;1.70;;
76727;SDS011;65652;53.132;18.026;2023-04-01T17:48:01;4.10;;;1.50;;
76727;SDS011;65652;53.132;18.026;2023-04-01T17:50:47;4.80;;;1.90;;
76727;SDS011;65652;53.132;18.026;2023-04-01T17:58:39;5.10;;;1.90;;
76727;SDS011;65652;53.132;18.026;2023-04-01T18:01:17;4.40;;;1.90;;
76727;SDS011;65652;53.132;18.026;2023-04-01T18:26:26;7.50;;;3.00;;
76727;SDS011;65652;53.132;18.026;2023-04-01T18:31:49;7.40;;;3.50;;
76727;SDS011;65652;53.132;18.026;2023-04-01T18:34:37;8.50;;;3.60;;
76727;SDS011;65652;53.132;18.026;2023-04-01T18:37:31;6.70;;;3.10;;
76727;SDS011;65652;53.132;18.026;2023-04-01T18:40:10;6.10;;;3.00;;
76727;SDS011;65652;53.132;18.026;2023-04-01T18:45:57;7.10;;;3.40;;
76727;SDS011;65652;53.132;18.026;2023-04-01T18:48:40;7.70;;;3.10;;
76727;SDS011;65652;53.132;18.026;2023-04-01T18:57:12;7.20;;;3.50;;
76727;SDS011;65652;53.132;18.026;2023-04-01T18:59:50;6.60;;;3.10;;
76727;SDS011;65652;53.132;18.026;2023-04-01T19:02:29;8.50;;;3.40;;
76727;SDS011;65652;53.132;18.026;2023-04-01T19:05:05;9.00;;;3.40;;
76727;SDS011;65652;53.132;18.026;2023-04-01T19:26:40;8.00;;;3.90;;
76727;SDS011;65652;53.132;18.026;2023-04-01T19:29:21;9.70;;;4.20;;
76727;SDS011;65652;53.132;18.026;2023-04-01T19:51:56;9.30;;;3.60;;
76727;SDS011;65652;53.132;18.026;2023-04-01T19:57:15;7.50;;;3.70;;
76727;SDS011;65652;53.132;18.026;2023-04-01T20:00:04;9.00;;;4.00;;
76727;SDS011;65652;53.132;18.026;2023-04-01T20:02:58;11.30;;;4.30;;
76727;SDS011;65652;53.132;18.026;2023-04-01T20:10:51;7.40;;;3.90;;
76727;SDS011;65652;53.132;18.026;2023-04-01T20:15:46;10.80;;;4.10;;
76727;SDS011;65652;53.132;18.026;2023-04-01T20:18:23;8.50;;;4.10;;
76727;SDS011;65652;53.132;18.026;2023-04-01T20:26:33;8.10;;;4.10;;
76727;SDS011;65652;53.132;18.026;2023-04-01T20:31:41;11.00;;;4.00;;
76727;SDS011;65652;53.132;18.026;2023-04-01T20:37:40;7.80;;;3.80;;
76727;SDS011;65652;53.132;18.026;2023-04-01T20:40:22;9.90;;;3.80;;
76727;SDS011;65652;53.132;18.026;2023-04-01T20:51:13;9.90;;;4.20;;
76727;SDS011;65652;53.132;18.026;2023-04-01T20:53:50;9.80;;;3.80;;
76727;SDS011;65652;53.132;18.026;2023-04-01T20:56:34;7.50;;;3.60;;
76727;SDS011;65652;53.132;18.026;2023-04-01T20:59:25;7.50;;;3.80;;
76727;SDS011;65652;53.132;18.026;2023-04-01T21:05:09;8.30;;;4.00;;
76727;SDS011;65652;53.132;18.026;2023-04-01T21:07:45;9.30;;;4.20;;
76727;SDS011;65652;53.132;18.026;2023-04-01T21:13:14;9.20;;;4.10;;
76727;SDS011;65652;53.132;18.026;2023-04-01T21:18:29;8.80;;;3.90;;
76727;SDS011;65652;53.132;18.026;2023-04-01T21:32:43;9.40;;;3.70;;
76727;SDS011;65652;53.132;18.026;2023-04-01T21:38:22;5.40;;;2.20;;
76727;SDS011;65652;53.132;18.026;2023-04-01T21:49:15;10.50;;;4.30;;
76727;SDS011;65652;53.132;18.026;2023-04-01T21:58:02;9.10;;;4.60;;
76727;SDS011;65652;53.132;18.026;2023-04-01T22:03:59;9.40;;;4.30;;
76727;SDS011;65652;53.132;18.026;2023-04-01T22:06:35;9.50;;;4.20;;
76727;SDS011;65652;53.132;18.026;2023-04-01T22:14:32;9.60;;;4.60;;
76727;SDS011;65652;53.132;18.026;2023-04-01T22:20:21;10.00;;;4.00;;
76727;SDS011;65652;53.132;18.026;2023-04-01T22:23:14;11.20;;;4.70;;
76727;SDS011;65652;53.132;18.026;2023-04-01T22:31:05;9.30;;;4.50;;
76727;SDS011;65652;53.132;18.026;2023-04-01T22:36:06;11.20;;;4.80;;
76727;SDS011;65652;53.132;18.026;2023-04-01T22:41:31;11.30;;;5.10;;
76727;SDS011;65652;53.132;18.026;2023-04-01T22:44:20;10.90;;;5.10;;
76727;SDS011;65652;53.132;18.026;2023-04-01T22:46:56;7.90;;;3.80;;
76727;SDS011;65652;53.132;18.026;2023-04-01T22:49:36;8.80;;;3.80;;
76727;SDS011;65652;53.132;18.026;2023-04-01T22:54:51;9.80;;;4.90;;
76727;SDS011;65652;53.132;18.026;2023-04-01T23:00:05;9.80;;;4.40;;
76727;SDS011;65652;53.132;18.026;2023-04-01T23:05:58;8.40;;;4.10;;
76727;SDS011;65652;53.132;18.026;2023-04-01T23:10:53;12.80;;;5.00;;
76727;SDS011;65652;53.132;18.026;2023-04-01T23:13:24;7.70;;;4.00;;
76727;SDS011;65652;53.132;18.026;2023-04-01T23:15:55;11.00;;;4.70;;
76727;SDS011;65652;53.132;18.026;2023-04-01T23:18:27;12.50;;;5.00;;
76727;SDS011;65652;53.132;18.026;2023-04-01T23:23:39;9.80;;;4.30;;
76727;SDS011;65652;53.132;18.026;2023-04-01T23:26:12;8.60;;;3.90;;
76727;SDS011;65652;53.132;18.026;2023-04-01T23:28:53;8.30;;;3.50;;
76727;SDS011;65652;53.132;18.026;2023-04-01T23:36:38;9.50;;;4.00;;
76727;SDS011;65652;53.132;18.026;2023-04-01T23:39:19;8.00;;;3.60;;
76727;SDS011;65652;53.132;18.026;2023-04-01T23:41:47;7.50;;;3.80;;
76727;SDS011;65652;53.132;18.026;2023-04-01T23:44:14;8.20;;;3.80;;
76727;SDS011;65652;53.132;18.026;2023-04-01T23:46:42;7.90;;;3.50;;
76727;SDS011;65652;53.132;18.026;2023-04-01T23:49:13;8.40;;;3.10;;
76727;SDS011;65652;53.132;18.026;2023-04-01T23:51:59;7.30;;;3.40;;
76727;SDS011;65652;53.132;18.026;2023-04-01T23:54:33;7.30;;;3.30;;
76727;SDS011;65652;53.132;18.026;2023-04-01T23:57:15;8.30;;;4.00;;
